Time;durP1;ratioP1;P1;durP2;ratioP2;P2;SDS_P1;SDS_P2;PMS_P1;PMS_P2;Temp;Humidity;BMP_temperature;BMP_pressure;BME280_temperature;BME280_humidity;BME280_pressure;Samples;Min_cycle;Max_cycle;Signal;HPM_P1;HPM_P2
2022/03/22 00:00:55;;;;;;;31.97;13.87;;;;;;;;;;5031695;28;20083;-75
2022/03/22 00:03:24;;;;;;;31.80;13.97;;;;;;;;;;5030979;28;20563;-74
2022/03/22 00:05:51;;;;;;;34.77;14.23;;;;;;;;;;5032088;28;20021;-74
2022/03/22 00:08:17;;;;;;;27.60;13.50;;;;;;;;;;5032496;28;20049;-74
2022/03/22 00:10:43;;;;;;;28.43;13.50;;;;;;;;;;5031429;28;20529;-74
2022/03/22 00:13:09;;;;;;;26.10;13.77;;;;;;;;;;5032837;28;20137;-74
2022/03/22 00:15:34;;;;;;;33.93;14.03;;;;;;;;;;5031189;28;20025;-74
2022/03/22 00:18:00;;;;;;;29.53;13.93;;;;;;;;;;5031646;28;20025;-74
2022/03/22 00:20:27;;;;;;;30.33;14.87;;;;;;;;;;5030772;28;20082;-74
2022/03/22 00:22:53;;;;;;;28.63;15.63;;;;;;;;;;5031338;28;20112;-74
2022/03/22 00:25:19;;;;;;;32.67;15.27;;;;;;;;;;5031389;28;20464;-74
2022/03/22 00:27:54;;;;;;;29.37;14.67;;;;;;;;;;5022785;28;20247;-74
2022/03/22 00:30:22;;;;;;;28.47;13.67;;;;;;;;;;5030988;28;20036;-74
2022/03/22 00:32:52;;;;;;;31.80;14.87;;;;;;;;;;5031554;28;20022;-74
2022/03/22 00:35:18;;;;;;;31.70;13.47;;;;;;;;;;5032432;28;20461;-74
2022/03/22 00:37:50;;;;;;;33.07;15.00;;;;;;;;;;5031422;28;20030;-73
2022/03/22 00:40:19;;;;;;;29.02;14.52;;;;;;;;;;5031313;28;20469;-73
2022/03/22 00:42:46;;;;;;;30.70;13.43;;;;;;;;;;5030631;28;20025;-73
2022/03/22 00:45:17;;;;;;;31.53;13.83;;;;;;;;;;5030596;28;20025;-73
2022/03/22 00:47:45;;;;;;;29.25;13.52;;;;;;;;;;5030599;28;20029;-74
2022/03/22 00:50:11;;;;;;;30.63;13.17;;;;;;;;;;5030626;28;20117;-74
2022/03/22 00:52:36;;;;;;;25.03;12.07;;;;;;;;;;5030754;28;20032;-74
2022/03/22 00:55:05;;;;;;;32.57;14.00;;;;;;;;;;5025018;28;20052;-74
2022/03/22 00:57:33;;;;;;;25.67;13.00;;;;;;;;;;5010898;28;20125;-74
2022/03/22 01:00:01;;;;;;;28.00;12.70;;;;;;;;;;5011183;28;20026;-74
2022/03/22 01:02:27;;;;;;;27.70;13.20;;;;;;;;;;5012186;28;20038;-74
2022/03/22 01:04:52;;;;;;;28.67;12.90;;;;;;;;;;5010321;28;20059;-73
2022/03/22 01:07:18;;;;;;;27.43;13.60;;;;;;;;;;5029297;28;20037;-75
2022/03/22 01:09:44;;;;;;;28.77;13.77;;;;;;;;;;5031399;28;20454;-75
2022/03/22 01:12:10;;;;;;;27.37;12.43;;;;;;;;;;5030656;28;20041;-74
2022/03/22 01:14:35;;;;;;;32.20;13.83;;;;;;;;;;5030411;28;20036;-74
2022/03/22 01:17:01;;;;;;;25.37;12.53;;;;;;;;;;5030706;28;20029;-74
2022/03/22 01:19:26;;;;;;;26.97;13.53;;;;;;;;;;5030444;28;20481;-74
2022/03/22 01:21:52;;;;;;;31.10;12.87;;;;;;;;;;5029894;28;20048;-76
2022/03/22 01:24:18;;;;;;;29.57;12.77;;;;;;;;;;5030342;28;20040;-74
2022/03/22 01:26:43;;;;;;;30.67;13.77;;;;;;;;;;5030501;28;20083;-75
2022/03/22 01:29:11;;;;;;;25.27;12.87;;;;;;;;;;5031530;28;20088;-74
2022/03/22 01:31:37;;;;;;;28.80;12.50;;;;;;;;;;5029813;28;20079;-74
2022/03/22 01:34:03;;;;;;;30.17;13.77;;;;;;;;;;5030223;28;20477;-73
2022/03/22 01:36:31;;;;;;;26.13;12.37;;;;;;;;;;5029986;28;20025;-74
2022/03/22 01:38:58;;;;;;;26.27;12.23;;;;;;;;;;5031425;28;20473;-74
2022/03/22 01:41:24;;;;;;;30.60;14.17;;;;;;;;;;5031057;28;20032;-74
2022/03/22 01:43:50;;;;;;;28.90;12.83;;;;;;;;;;5032891;28;20129;-74
2022/03/22 01:46:19;;;;;;;26.50;11.80;;;;;;;;;;5029954;28;20520;-74
2022/03/22 01:48:44;;;;;;;26.17;12.53;;;;;;;;;;5029784;28;20465;-74
2022/03/22 01:51:10;;;;;;;33.00;14.23;;;;;;;;;;5029703;28;20079;-73
2022/03/22 01:53:37;;;;;;;24.67;12.97;;;;;;;;;;5012746;28;20055;-74
2022/03/22 01:56:03;;;;;;;28.80;14.23;;;;;;;;;;5030072;28;20129;-74
2022/03/22 01:58:29;;;;;;;30.83;12.10;;;;;;;;;;5029423;28;20203;-74
2022/03/22 02:05:51;;;;;;;25.63;12.93;;;;;;;;;;5029492;28;20029;-74
2022/03/22 02:06:32;;;;;;;25.77;13.00;;;;;;;;;;5029633;28;20052;-74
2022/03/22 02:08:58;;;;;;;31.73;14.10;;;;;;;;;;5020212;28;20034;-74
2022/03/22 02:11:23;;;;;;;29.97;12.97;;;;;;;;;;5015412;28;20018;-74
2022/03/22 02:13:50;;;;;;;29.47;12.70;;;;;;;;;;5029183;28;20029;-74
2022/03/22 02:16:15;;;;;;;26.00;11.97;;;;;;;;;;5028372;28;20036;-74
2022/03/22 02:18:42;;;;;;;24.40;11.90;;;;;;;;;;5017206;28;20022;-74
2022/03/22 02:21:09;;;;;;;25.60;11.67;;;;;;;;;;5016359;28;20025;-73
2022/03/22 02:23:52;;;;;;;24.67;12.40;;;;;;;;;;5025178;28;20572;-73
2022/03/22 02:26:19;;;;;;;20.20;11.53;;;;;;;;;;5010544;28;20068;-73
2022/03/22 02:28:45;;;;;;;21.67;10.90;;;;;;;;;;5028729;28;20108;-73
2022/03/22 02:31:11;;;;;;;22.53;11.07;;;;;;;;;;5030362;28;20041;-74
2022/03/22 02:33:43;;;;;;;22.07;11.77;;;;;;;;;;5028784;28;20488;-72
2022/03/22 02:36:09;;;;;;;24.27;11.73;;;;;;;;;;5027695;28;20033;-73
2022/03/22 02:38:34;;;;;;;24.60;12.20;;;;;;;;;;5023340;28;20052;-73
2022/03/22 02:41:01;;;;;;;20.77;11.10;;;;;;;;;;5019181;28;20029;-73
2022/03/22 02:43:27;;;;;;;27.47;11.27;;;;;;;;;;5028641;28;20029;-73
2022/03/22 02:45:53;;;;;;;31.00;11.63;;;;;;;;;;5030038;28;20032;-73
2022/03/22 02:48:18;;;;;;;26.87;12.23;;;;;;;;;;5028899;28;20025;-73
2022/03/22 02:50:44;;;;;;;26.87;12.13;;;;;;;;;;5028489;28;20498;-73
2022/03/22 02:53:10;;;;;;;30.73;12.83;;;;;;;;;;5028299;28;20167;-74
2022/03/22 02:55:36;;;;;;;25.90;12.63;;;;;;;;;;5029657;28;20036;-72
2022/03/22 02:58:04;;;;;;;27.53;12.83;;;;;;;;;;5030562;28;20099;-74
2022/03/22 03:00:31;;;;;;;34.20;13.57;;;;;;;;;;5028247;28;20036;-73
2022/03/22 03:02:57;;;;;;;29.67;12.33;;;;;;;;;;5005520;28;20037;-73
2022/03/22 03:05:23;;;;;;;26.23;12.47;;;;;;;;;;5009469;28;20026;-73
2022/03/22 03:07:50;;;;;;;27.40;12.60;;;;;;;;;;5021059;28;20057;-73
2022/03/22 03:10:16;;;;;;;31.13;13.00;;;;;;;;;;5031924;28;20083;-74
2022/03/22 03:12:41;;;;;;;26.73;12.10;;;;;;;;;;5011951;28;20029;-74
2022/03/22 03:15:09;;;;;;;30.53;12.90;;;;;;;;;;5030493;28;20061;-75
2022/03/22 03:17:36;;;;;;;25.33;13.30;;;;;;;;;;5039005;28;20052;-74
2022/03/22 03:20:03;;;;;;;29.27;13.37;;;;;;;;;;5041831;28;20026;-72
2022/03/22 03:22:28;;;;;;;32.13;14.23;;;;;;;;;;5042503;28;20041;-73
2022/03/22 03:24:55;;;;;;;32.87;12.77;;;;;;;;;;5044293;28;20032;-73
2022/03/22 03:27:22;;;;;;;27.83;13.53;;;;;;;;;;5035733;28;20025;-73
2022/03/22 03:29:48;;;;;;;22.20;12.80;;;;;;;;;;5030268;28;20083;-74
2022/03/22 03:32:14;;;;;;;24.70;12.87;;;;;;;;;;5029847;28;20096;-73
2022/03/22 03:34:39;;;;;;;36.53;13.83;;;;;;;;;;5028020;28;20033;-74
2022/03/22 03:37:05;;;;;;;29.37;13.27;;;;;;;;;;5027976;28;20031;-73
2022/03/22 03:39:30;;;;;;;28.30;13.33;;;;;;;;;;5027809;28;20068;-73
2022/03/22 03:42:00;;;;;;;27.40;13.63;;;;;;;;;;5027794;28;20551;-73
2022/03/22 03:47:16;;;;;;;28.43;13.70;;;;;;;;;;5011207;28;20036;-74
2022/03/22 03:49:48;;;;;;;32.83;12.83;;;;;;;;;;5019680;28;20415;-73
2022/03/22 03:52:16;;;;;;;29.38;13.85;;;;;;;;;;5014128;28;20030;-73
2022/03/22 03:54:42;;;;;;;29.63;13.53;;;;;;;;;;5026982;28;20030;-74
2022/03/22 03:57:09;;;;;;;35.50;13.23;;;;;;;;;;5027986;28;20033;-74
2022/03/22 03:59:37;;;;;;;45.70;15.90;;;;;;;;;;5027848;28;20128;-73
2022/03/22 04:02:04;;;;;;;27.10;13.53;;;;;;;;;;5027525;28;20029;-74
2022/03/22 04:04:30;;;;;;;30.00;12.93;;;;;;;;;;5028903;28;20033;-74
2022/03/22 04:06:56;;;;;;;26.17;13.87;;;;;;;;;;5027368;28;20075;-74
2022/03/22 04:09:21;;;;;;;30.47;13.27;;;;;;;;;;5027252;28;20035;-74
2022/03/22 04:11:47;;;;;;;31.20;13.17;;;;;;;;;;5027273;28;20036;-73
2022/03/22 04:14:13;;;;;;;25.70;12.30;;;;;;;;;;5027487;28;20021;-73
2022/03/22 04:16:40;;;;;;;29.67;13.00;;;;;;;;;;5027583;28;20032;-73
2022/03/22 04:19:08;;;;;;;28.87;13.40;;;;;;;;;;5027697;28;20021;-74
2022/03/22 04:21:38;;;;;;;37.37;14.27;;;;;;;;;;5016477;28;20068;-73
2022/03/22 04:24:06;;;;;;;32.10;15.03;;;;;;;;;;5019297;28;20522;-73
2022/03/22 04:26:36;;;;;;;31.80;14.20;;;;;;;;;;5010119;28;20068;-73
2022/03/22 04:32:47;;;;;;;32.93;14.80;;;;;;;;;;5009139;28;20489;-74
2022/03/22 04:34:43;;;;;;;30.10;14.03;;;;;;;;;;5009932;28;20073;-73
2022/03/22 04:37:12;;;;;;;28.97;14.47;;;;;;;;;;5011374;28;20033;-74
2022/03/22 04:39:39;;;;;;;27.87;13.63;;;;;;;;;;5029096;28;20056;-75
2022/03/22 04:42:06;;;;;;;37.63;14.43;;;;;;;;;;5030676;28;20021;-73
2022/03/22 04:44:32;;;;;;;32.90;15.07;;;;;;;;;;5030759;28;20030;-73
2022/03/22 04:46:58;;;;;;;31.43;14.57;;;;;;;;;;5032094;28;20032;-73
2022/03/22 04:49:24;;;;;;;30.63;15.03;;;;;;;;;;5032024;28;20029;-74
2022/03/22 04:57:18;;;;;;;34.57;15.33;;;;;;;;;;5032499;28;20037;-74
2022/03/22 04:59:44;;;;;;;42.00;16.33;;;;;;;;;;5030984;28;20018;-74
2022/03/22 05:02:10;;;;;;;36.97;15.70;;;;;;;;;;5032310;28;20033;-73
2022/03/22 05:04:35;;;;;;;39.10;15.67;;;;;;;;;;5030582;28;20473;-73
2022/03/22 05:07:01;;;;;;;33.13;15.90;;;;;;;;;;5031671;28;20125;-73
2022/03/22 05:09:30;;;;;;;30.87;15.63;;;;;;;;;;5031605;28;20791;-74
2022/03/22 05:11:59;;;;;;;37.17;15.93;;;;;;;;;;5030096;28;20025;-73
2022/03/22 05:14:25;;;;;;;35.13;14.70;;;;;;;;;;5030608;28;20036;-74
2022/03/22 05:16:51;;;;;;;30.87;14.77;;;;;;;;;;5030326;28;20096;-74
2022/03/22 05:19:17;;;;;;;59.67;29.57;;;;;;;;;;5030555;28;20431;-74
2022/03/22 05:21:43;;;;;;;37.03;15.40;;;;;;;;;;5029988;28;20037;-74
2022/03/22 05:24:09;;;;;;;27.17;14.77;;;;;;;;;;5030160;28;20028;-73
2022/03/22 05:26:35;;;;;;;35.77;15.80;;;;;;;;;;5030298;28;20025;-74
2022/03/22 05:29:05;;;;;;;33.77;15.77;;;;;;;;;;5030383;28;20030;-74
2022/03/22 05:31:34;;;;;;;31.30;14.07;;;;;;;;;;5022962;28;20057;-72
2022/03/22 05:34:01;;;;;;;35.37;15.80;;;;;;;;;;5010419;28;20022;-74
2022/03/22 05:36:27;;;;;;;33.60;14.47;;;;;;;;;;5010050;28;20037;-73
2022/03/22 05:38:53;;;;;;;36.27;17.13;;;;;;;;;;5017370;28;20500;-78
2022/03/22 05:41:20;;;;;;;32.97;13.87;;;;;;;;;;5021185;28;20025;-74
2022/03/22 05:43:46;;;;;;;28.60;14.30;;;;;;;;;;5011415;28;20083;-74
2022/03/22 05:46:12;;;;;;;30.63;14.67;;;;;;;;;;5020602;28;20119;-74
2022/03/22 05:48:38;;;;;;;27.33;14.83;;;;;;;;;;5031326;28;20433;-74
2022/03/22 05:51:04;;;;;;;33.60;15.50;;;;;;;;;;5031760;28;20404;-75
2022/03/22 05:53:30;;;;;;;30.93;15.23;;;;;;;;;;5029691;28;20029;-74
2022/03/22 05:55:56;;;;;;;32.57;14.70;;;;;;;;;;5031310;28;20032;-74
2022/03/22 05:58:22;;;;;;;34.77;15.57;;;;;;;;;;5030200;28;20025;-74
2022/03/22 06:00:47;;;;;;;36.70;15.13;;;;;;;;;;5030987;28;20029;-74
2022/03/22 06:03:14;;;;;;;36.20;15.47;;;;;;;;;;5029001;28;20025;-73
2022/03/22 06:05:39;;;;;;;33.37;15.97;;;;;;;;;;4996082;28;20029;-74
2022/03/22 06:08:05;;;;;;;34.60;14.87;;;;;;;;;;5029361;28;20032;-74
2022/03/22 06:10:31;;;;;;;40.30;15.53;;;;;;;;;;5029175;28;20029;-73
2022/03/22 06:12:57;;;;;;;31.17;15.03;;;;;;;;;;5026970;28;20091;-74
2022/03/22 06:15:32;;;;;;;25.37;12.63;;;;;;;;;;5021207;28;20722;-74
2022/03/22 06:18:06;;;;;;;31.17;15.57;;;;;;;;;;5008713;28;20080;-73
2022/03/22 06:20:36;;;;;;;32.73;15.20;;;;;;;;;;5010558;28;20053;-75
2022/03/22 06:23:04;;;;;;;44.07;16.47;;;;;;;;;;5008705;28;20057;-74
2022/03/22 06:25:30;;;;;;;37.30;15.90;;;;;;;;;;5008038;28;20688;-73
2022/03/22 06:27:57;;;;;;;40.77;18.97;;;;;;;;;;5014917;28;20124;-73
2022/03/22 06:30:24;;;;;;;29.37;16.67;;;;;;;;;;5028023;28;20124;-74
2022/03/22 06:32:58;;;;;;;36.60;16.50;;;;;;;;;;5027908;28;20511;-74
2022/03/22 06:35:26;;;;;;;35.27;16.97;;;;;;;;;;5029317;28;20386;-74
2022/03/22 06:37:54;;;;;;;33.47;17.73;;;;;;;;;;5029841;28;20112;-74
2022/03/22 06:40:21;;;;;;;35.33;15.80;;;;;;;;;;5027720;28;20032;-74
2022/03/22 06:42:48;;;;;;;31.43;15.73;;;;;;;;;;5023709;28;20486;-74
2022/03/22 06:45:14;;;;;;;37.03;15.67;;;;;;;;;;5027459;28;20489;-75
2022/03/22 06:47:41;;;;;;;37.47;16.33;;;;;;;;;;5027811;28;20120;-75
2022/03/22 06:50:08;;;;;;;34.73;16.17;;;;;;;;;;5027785;28;20047;-75
2022/03/22 06:52:34;;;;;;;37.47;15.33;;;;;;;;;;5026764;28;20033;-74
2022/03/22 06:55:00;;;;;;;40.13;17.30;;;;;;;;;;5009522;28;20033;-74
2022/03/22 06:57:31;;;;;;;30.37;16.07;;;;;;;;;;5024409;28;20321;-76
2022/03/22 06:59:58;;;;;;;35.17;16.70;;;;;;;;;;5012571;28;20100;-75
2022/03/22 07:02:24;;;;;;;38.43;18.43;;;;;;;;;;4986463;28;20045;-74
2022/03/22 07:04:50;;;;;;;34.07;15.27;;;;;;;;;;4999630;28;20030;-75
2022/03/22 07:07:15;;;;;;;43.87;20.63;;;;;;;;;;5026228;28;20212;-74
2022/03/22 07:09:42;;;;;;;39.70;19.20;;;;;;;;;;5039493;28;20036;-74
2022/03/22 07:12:08;;;;;;;31.03;15.93;;;;;;;;;;5031940;28;20108;-74
2022/03/22 07:14:34;;;;;;;32.27;16.70;;;;;;;;;;5028608;28;20056;-76
2022/03/22 07:17:03;;;;;;;33.17;15.50;;;;;;;;;;5027811;28;20025;-74
2022/03/22 07:19:29;;;;;;;36.97;16.23;;;;;;;;;;5026529;28;20026;-74
2022/03/22 07:21:57;;;;;;;47.97;19.07;;;;;;;;;;5023133;28;20036;-74
2022/03/22 07:24:23;;;;;;;37.77;15.40;;;;;;;;;;5025708;28;20083;-75
2022/03/22 07:26:48;;;;;;;46.20;19.67;;;;;;;;;;5028778;28;20029;-74
2022/03/22 07:29:14;;;;;;;36.50;15.93;;;;;;;;;;5031282;28;20029;-74
2022/03/22 07:31:40;;;;;;;31.07;15.33;;;;;;;;;;5015122;28;20041;-75
2022/03/22 07:34:15;;;;;;;33.13;15.57;;;;;;;;;;5023581;28;20422;-74
2022/03/22 07:36:41;;;;;;;35.43;17.03;;;;;;;;;;5032747;28;20476;-73
2022/03/22 07:39:08;;;;;;;37.83;16.83;;;;;;;;;;5029622;28;20044;-74
2022/03/22 07:41:34;;;;;;;41.67;18.80;;;;;;;;;;5019635;28;20036;-72
2022/03/22 07:44:01;;;;;;;33.37;15.77;;;;;;;;;;5026388;28;20052;-76
2022/03/22 07:46:27;;;;;;;35.53;16.07;;;;;;;;;;4997314;28;20033;-73
2022/03/22 07:48:54;;;;;;;30.17;14.83;;;;;;;;;;5013263;28;20524;-76
2022/03/22 07:54:05;;;;;;;35.97;15.90;;;;;;;;;;5029774;28;20142;-79
2022/03/22 07:56:30;;;;;;;35.77;14.33;;;;;;;;;;5027735;28;20024;-73
2022/03/22 07:59:02;;;;;;;35.67;14.77;;;;;;;;;;5026072;28;20021;-75
2022/03/22 08:01:28;;;;;;;32.08;15.13;;;;;;;;;;5025832;28;20758;-74
2022/03/22 08:03:53;;;;;;;23.47;13.23;;;;;;;;;;5011236;28;20033;-76
2022/03/22 08:06:20;;;;;;;30.10;13.47;;;;;;;;;;5014103;28;20775;-75
2022/03/22 08:08:47;;;;;;;22.40;12.83;;;;;;;;;;5014934;28;20045;-76
2022/03/22 08:11:15;;;;;;;25.60;11.83;;;;;;;;;;5016491;28;20030;-75
2022/03/22 08:13:42;;;;;;;25.50;11.80;;;;;;;;;;5014564;28;20045;-76
2022/03/22 08:16:07;;;;;;;23.30;11.47;;;;;;;;;;5022768;28;20044;-75
2022/03/22 08:18:33;;;;;;;23.83;12.03;;;;;;;;;;5024321;28;20029;-74
2022/03/22 08:20:59;;;;;;;21.97;11.63;;;;;;;;;;5002170;28;20037;-73
2022/03/22 08:23:26;;;;;;;26.23;12.33;;;;;;;;;;5021846;28;20029;-74
2022/03/22 08:25:53;;;;;;;18.20;10.13;;;;;;;;;;5025858;28;20029;-73
2022/03/22 08:28:19;;;;;;;19.60;12.17;;;;;;;;;;5025949;28;20425;-74
2022/03/22 08:30:45;;;;;;;23.57;11.87;;;;;;;;;;5026034;28;20037;-76
2022/03/22 08:33:11;;;;;;;29.27;12.80;;;;;;;;;;5002339;28;20045;-75
2022/03/22 08:35:52;;;;;;;22.00;12.57;;;;;;;;;;5023652;28;20547;-75
2022/03/22 08:38:24;;;;;;;24.70;13.47;;;;;;;;;;5023372;28;20036;-75
2022/03/22 08:40:50;;;;;;;;;;;;;;;;;;5005802;28;20213;-74
2022/03/22 08:43:16;;;;;;;19.77;10.37;;;;;;;;;;5019532;28;20047;-75
2022/03/22 08:45:41;;;;;;;21.37;10.60;;;;;;;;;;5038257;28;20460;-77
2022/03/22 08:48:11;;;;;;;27.70;13.27;;;;;;;;;;5026903;28;20410;-74
2022/03/22 08:50:39;;;;;;;29.47;13.00;;;;;;;;;;5026829;28;20040;-74
2022/03/22 08:53:06;;;;;;;23.60;12.60;;;;;;;;;;5021029;28;20057;-74
2022/03/22 08:55:32;;;;;;;28.37;11.87;;;;;;;;;;5021365;28;20034;-74
2022/03/22 08:58:05;;;;;;;24.33;11.87;;;;;;;;;;5011438;28;20052;-75
2022/03/22 09:00:33;;;;;;;22.53;12.73;;;;;;;;;;5013191;28;20030;-74
2022/03/22 09:03:02;;;;;;;21.40;11.73;;;;;;;;;;5013405;28;20040;-74
2022/03/22 09:08:15;;;;;;;19.03;11.43;;;;;;;;;;5023366;28;20496;-75
2022/03/22 09:10:41;;;;;;;19.57;10.90;;;;;;;;;;5018267;28;20121;-75
2022/03/22 09:13:08;;;;;;;17.97;10.53;;;;;;;;;;5023037;28;20159;-72
2022/03/22 09:15:38;;;;;;;21.67;12.03;;;;;;;;;;5018638;28;20033;-74
2022/03/22 09:18:05;;;;;;;21.33;12.00;;;;;;;;;;5035464;28;20374;-76
2022/03/22 09:20:32;;;;;;;32.10;12.80;;;;;;;;;;5029993;28;20021;-73
2022/03/22 09:23:00;;;;;;;28.47;13.63;;;;;;;;;;5010234;28;20034;-74
2022/03/22 09:25:29;;;;;;;27.37;14.20;;;;;;;;;;5036902;28;20029;-77
2022/03/22 09:27:56;;;;;;;26.37;12.50;;;;;;;;;;5036867;28;20021;-75
2022/03/22 09:30:23;;;;;;;31.63;14.20;;;;;;;;;;5031818;28;20093;-77
2022/03/22 09:32:56;;;;;;;23.63;13.20;;;;;;;;;;5027361;28;20040;-76
2022/03/22 09:35:22;;;;;;;28.07;13.77;;;;;;;;;;5030920;28;20111;-78
2022/03/22 09:37:48;;;;;;;26.07;14.00;;;;;;;;;;5030706;28;20041;-74
2022/03/22 09:40:16;;;;;;;22.57;12.77;;;;;;;;;;5033652;28;20104;-76
2022/03/22 09:42:45;;;;;;;28.83;13.43;;;;;;;;;;5036151;28;20029;-75
2022/03/22 09:45:18;;;;;;;27.20;14.83;;;;;;;;;;5025106;28;20021;-75
2022/03/22 09:47:45;;;;;;;25.03;13.63;;;;;;;;;;5026908;28;20029;-75
2022/03/22 09:50:15;;;;;;;27.50;14.40;;;;;;;;;;5025178;28;20029;-74
2022/03/22 09:52:41;;;;;;;29.13;14.63;;;;;;;;;;5020195;28;20024;-74
2022/03/22 09:55:08;;;;;;;30.57;15.83;;;;;;;;;;5021766;28;20035;-74
2022/03/22 09:57:36;;;;;;;34.90;21.00;;;;;;;;;;5026655;28;20029;-74
2022/03/22 10:00:13;;;;;;;26.43;14.17;;;;;;;;;;5018438;28;20083;-75
2022/03/22 10:02:39;;;;;;;25.73;14.17;;;;;;;;;;5022872;28;20044;-74
2022/03/22 10:05:06;;;;;;;34.93;15.53;;;;;;;;;;5021448;28;20037;-75
2022/03/22 10:07:33;;;;;;;28.60;15.37;;;;;;;;;;5018385;28;20050;-76
2022/03/22 10:10:02;;;;;;;28.20;14.37;;;;;;;;;;5007398;28;20056;-77
2022/03/22 10:12:31;;;;;;;21.90;14.07;;;;;;;;;;5024970;28;20080;-74
2022/03/22 10:15:14;;;;;;;21.92;13.35;;;;;;;;;;5020290;28;20029;-73
2022/03/22 10:17:41;;;;;;;24.67;12.50;;;;;;;;;;5019161;28;20751;-73
2022/03/22 10:20:08;;;;;;;21.15;12.77;;;;;;;;;;5024816;28;20029;-74
2022/03/22 10:22:36;;;;;;;22.10;11.68;;;;;;;;;;5002496;28;20034;-76
2022/03/22 10:25:07;;;;;;;23.40;12.38;;;;;;;;;;5001663;28;20030;-74
2022/03/22 10:27:36;;;;;;;29.98;12.50;;;;;;;;;;5025099;28;20056;-76
2022/03/22 10:30:08;;;;;;;19.13;11.82;;;;;;;;;;5026814;28;20021;-75
2022/03/22 10:32:36;;;;;;;23.23;12.20;;;;;;;;;;5027369;28;20021;-76
2022/03/22 10:35:32;;;;;;;18.35;11.45;;;;;;;;;;5019018;28;20107;-75
2022/03/22 10:38:07;;;;;;;22.70;12.48;;;;;;;;;;5026328;28;20122;-73
2022/03/22 10:40:44;;;;;;;22.63;12.45;;;;;;;;;;5015871;28;20093;-74
2022/03/22 10:43:17;;;;;;;22.88;12.00;;;;;;;;;;5033316;28;20037;-75
2022/03/22 10:45:48;;;;;;;22.52;11.57;;;;;;;;;;5040201;28;20021;-74
2022/03/22 10:48:26;;;;;;;24.05;11.85;;;;;;;;;;5040308;28;20097;-74
2022/03/22 10:50:54;;;;;;;22.25;14.13;;;;;;;;;;5030202;28;20036;-75
2022/03/22 10:53:21;;;;;;;25.70;13.45;;;;;;;;;;5020338;28;20034;-74
2022/03/22 10:55:48;;;;;;;21.85;13.48;;;;;;;;;;5025394;28;20334;-75
2022/03/22 10:58:21;;;;;;;25.08;13.25;;;;;;;;;;5026132;28;20029;-74
2022/03/22 11:00:48;;;;;;;23.67;13.30;;;;;;;;;;5027545;28;20056;-75
2022/03/22 11:03:17;;;;;;;22.17;13.25;;;;;;;;;;5022061;28;20033;-75
2022/03/22 11:05:50;;;;;;;20.02;12.85;;;;;;;;;;5021485;28;20094;-75
2022/03/22 11:08:20;;;;;;;32.92;12.52;;;;;;;;;;5025870;28;20056;-75
2022/03/22 11:10:47;;;;;;;15.75;10.93;;;;;;;;;;5025368;28;20021;-75
2022/03/22 11:13:15;;;;;;;19.17;11.68;;;;;;;;;;5003289;28;20058;-75
2022/03/22 11:15:44;;;;;;;20.55;11.77;;;;;;;;;;5024382;28;20098;-74
2022/03/22 11:18:11;;;;;;;22.83;11.32;;;;;;;;;;5021995;28;20159;-75
2022/03/22 11:20:47;;;;;;;15.18;9.35;;;;;;;;;;5019834;28;20084;-76
2022/03/22 11:23:13;;;;;;;16.45;9.13;;;;;;;;;;4996866;28;20124;-71
2022/03/22 11:25:41;;;;;;;12.75;7.97;;;;;;;;;;5022884;28;20123;-74
2022/03/22 11:28:09;;;;;;;9.63;6.35;;;;;;;;;;5023229;28;20029;-73
2022/03/22 11:30:41;;;;;;;10.43;6.70;;;;;;;;;;5026960;28;20083;-76
2022/03/22 11:35:59;;;;;;;16.27;8.02;;;;;;;;;;5025157;28;20480;-78
2022/03/22 11:39:01;;;;;;;11.05;7.30;;;;;;;;;;5024404;28;20585;-76
2022/03/22 11:44:19;;;;;;;14.55;7.45;;;;;;;;;;5018093;28;20079;-80
2022/03/22 11:47:11;;;;;;;14.80;7.30;;;;;;;;;;5016182;28;20136;-77
2022/03/22 11:50:00;;;;;;;16.45;7.25;;;;;;;;;;5033773;28;20052;-79
2022/03/22 11:52:41;;;;;;;15.65;7.03;;;;;;;;;;5020614;28;20052;-75
2022/03/22 11:55:16;;;;;;;11.27;7.27;;;;;;;;;;5017037;28;20454;-79
2022/03/22 11:58:11;;;;;;;9.82;6.63;;;;;;;;;;5026652;28;20271;-78
2022/03/22 12:00:52;;;;;;;9.27;6.32;;;;;;;;;;5023434;28;20030;-78
2022/03/22 12:03:22;;;;;;;13.13;6.67;;;;;;;;;;5020272;28;20030;-78
2022/03/22 12:05:48;;;;;;;11.88;6.95;;;;;;;;;;5034986;28;20112;-75
2022/03/22 12:08:19;;;;;;;10.38;6.22;;;;;;;;;;5025583;28;20120;-79
2022/03/22 12:10:47;;;;;;;9.98;5.97;;;;;;;;;;5022137;28;20844;-75
2022/03/22 12:13:13;;;;;;;15.50;9.68;;;;;;;;;;5021756;28;20037;-77
2022/03/22 12:15:41;;;;;;;11.25;6.18;;;;;;;;;;5015042;28;20087;-77
2022/03/22 12:18:11;;;;;;;9.35;6.07;;;;;;;;;;5023454;28;20106;-77
2022/03/22 12:20:39;;;;;;;7.95;5.57;;;;;;;;;;5017307;28;20056;-78
2022/03/22 12:23:06;;;;;;;10.65;7.47;;;;;;;;;;5023460;28;20033;-76
2022/03/22 12:25:34;;;;;;;11.10;6.35;;;;;;;;;;5022803;28;20037;-77
2022/03/22 12:28:01;;;;;;;15.82;6.13;;;;;;;;;;5024955;28;20035;-75
2022/03/22 12:30:35;;;;;;;9.85;6.65;;;;;;;;;;5029808;28;20022;-78
2022/03/22 12:33:10;;;;;;;11.70;6.40;;;;;;;;;;5025649;28;20077;-76
2022/03/22 12:35:37;;;;;;;7.82;6.10;;;;;;;;;;5027432;28;20026;-77
2022/03/22 12:38:04;;;;;;;55.30;9.68;;;;;;;;;;5021174;28;20435;-77
2022/03/22 12:40:31;;;;;;;10.18;5.78;;;;;;;;;;5026702;28;20029;-75
2022/03/22 12:42:58;;;;;;;12.73;6.00;;;;;;;;;;5021034;28;20139;-76
2022/03/22 12:45:26;;;;;;;12.57;5.43;;;;;;;;;;5021009;28;20021;-76
2022/03/22 12:47:56;;;;;;;11.93;5.45;;;;;;;;;;5025912;28;20041;-80
2022/03/22 12:50:23;;;;;;;8.10;5.70;;;;;;;;;;5024661;28;20061;-74
2022/03/22 12:52:50;;;;;;;8.18;6.15;;;;;;;;;;5023134;28;20037;-75
2022/03/22 12:55:17;;;;;;;8.68;5.18;;;;;;;;;;4999576;28;20033;-73
2022/03/22 12:57:48;;;;;;;9.55;5.90;;;;;;;;;;5023180;28;20140;-79
2022/03/22 13:00:31;;;;;;;10.75;5.80;;;;;;;;;;5025963;28;20378;-84
2022/03/22 13:03:19;;;;;;;8.57;5.28;;;;;;;;;;5025338;28;20048;-79
2022/03/22 13:05:52;;;;;;;7.20;4.72;;;;;;;;;;5024679;28;20033;-81
2022/03/22 13:08:26;;;;;;;9.15;5.00;;;;;;;;;;5030486;28;20042;-79
2022/03/22 13:16:30;;;;;;;9.82;5.88;;;;;;;;;;5024978;28;20032;-80
2022/03/22 13:19:00;;;;;;;8.32;5.68;;;;;;;;;;5028396;28;20147;-79
2022/03/22 13:21:30;;;;;;;11.85;5.50;;;;;;;;;;5009752;28;21183;-71
2022/03/22 13:24:10;;;;;;;9.48;5.45;;;;;;;;;;5024983;28;20033;-76
2022/03/22 13:26:39;;;;;;;8.73;5.20;;;;;;;;;;5029374;28;20025;-77
2022/03/22 13:29:18;;;;;;;7.13;4.85;;;;;;;;;;5027618;28;20787;-77
2022/03/22 13:32:02;;;;;;;7.93;5.20;;;;;;;;;;5021439;28;20130;-76
2022/03/22 13:34:37;;;;;;;9.73;5.20;;;;;;;;;;5030849;28;20045;-75
2022/03/22 13:37:23;;;;;;;5.65;4.75;;;;;;;;;;5021930;28;20440;-78
2022/03/22 13:39:52;;;;;;;9.32;4.85;;;;;;;;;;5020583;28;20473;-81
2022/03/22 13:42:21;;;;;;;11.50;5.35;;;;;;;;;;5024390;28;20033;-75
2022/03/22 13:45:12;;;;;;;6.20;5.60;;;;;;;;;;5014453;28;20041;-77
2022/03/22 13:47:44;;;;;;;9.45;5.05;;;;;;;;;;5027707;28;20034;-75
2022/03/22 13:50:18;;;;;;;7.03;5.28;;;;;;;;;;5030789;28;20030;-78
2022/03/22 13:52:47;;;;;;;8.63;5.18;;;;;;;;;;5028824;28;20143;-75
2022/03/22 13:55:17;;;;;;;11.25;5.70;;;;;;;;;;5021088;28;20132;-78
2022/03/22 13:57:47;;;;;;;10.13;5.37;;;;;;;;;;5025146;28;20691;-77
2022/03/22 14:00:13;;;;;;;17.52;6.32;;;;;;;;;;5025905;28;20022;-76
2022/03/22 14:02:39;;;;;;;10.23;5.25;;;;;;;;;;5020794;28;20040;-76
2022/03/22 14:05:10;;;;;;;14.68;6.05;;;;;;;;;;5021784;28;20037;-76
2022/03/22 14:07:36;;;;;;;7.95;5.35;;;;;;;;;;5033423;28;20056;-79
2022/03/22 14:10:03;;;;;;;13.27;5.47;;;;;;;;;;5034094;28;20026;-79
2022/03/22 14:12:29;;;;;;;10.20;5.25;;;;;;;;;;5030097;28;20079;-78
2022/03/22 14:14:55;;;;;;;7.78;5.03;;;;;;;;;;5024673;28;20067;-77
2022/03/22 14:17:20;;;;;;;6.40;5.47;;;;;;;;;;5030959;28;20083;-79
2022/03/22 14:19:46;;;;;;;7.95;5.28;;;;;;;;;;5026148;28;20109;-78
2022/03/22 14:22:12;;;;;;;8.88;5.38;;;;;;;;;;5044502;28;20491;-78
2022/03/22 14:24:38;;;;;;;10.25;5.05;;;;;;;;;;5035655;28;20037;-79
2022/03/22 14:27:04;;;;;;;7.30;4.75;;;;;;;;;;5026472;28;20110;-80
2022/03/22 14:29:30;;;;;;;10.55;5.63;;;;;;;;;;5025623;28;20127;-78
2022/03/22 14:31:55;;;;;;;7.90;5.10;;;;;;;;;;5018708;28;20033;-80
2022/03/22 14:37:05;;;;;;;7.22;5.50;;;;;;;;;;5026749;28;20516;-80
2022/03/22 14:39:31;;;;;;;8.38;5.60;;;;;;;;;;5028288;28;20056;-79
2022/03/22 14:41:56;;;;;;;8.93;5.18;;;;;;;;;;5021479;28;20068;-79
2022/03/22 14:44:22;;;;;;;6.32;5.38;;;;;;;;;;5027173;28;20091;-78
2022/03/22 14:46:51;;;;;;;9.82;5.20;;;;;;;;;;5016942;28;20033;-80
2022/03/22 14:49:21;;;;;;;9.75;5.50;;;;;;;;;;5025599;28;20052;-78
2022/03/22 14:54:33;;;;;;;10.02;5.50;;;;;;;;;;5022157;28;20041;-76
2022/03/22 14:59:45;;;;;;;9.30;5.28;;;;;;;;;;5022725;28;20032;-76
2022/03/22 15:02:13;;;;;;;8.38;5.15;;;;;;;;;;5021734;28;20037;-77
2022/03/22 15:04:42;;;;;;;8.50;5.15;;;;;;;;;;5021059;28;20669;-80
2022/03/22 15:07:08;;;;;;;7.80;4.97;;;;;;;;;;5022070;28;20080;-78